Time;durP1;ratioP1;P1;durP2;ratioP2;P2;SDS_P1;SDS_P2;PMS_P1;PMS_P2;Temp;Humidity;BMP_temperature;BMP_pressure;BME280_temperature;BME280_humidity;BME280_pressure;Samples;Min_cycle;Max_cycle;Signal;HPM_P1;HPM_P2
2022/04/06 00:01:40;;;;;;;26.70;11.38;;;8.10;99.90;;;;;;4898593;29;20080;-73
2022/04/06 00:04:06;;;;;;;25.88;11.32;;;8.10;99.90;;;;;;4914245;29;20053;-75
2022/04/06 00:06:31;;;;;;;29.75;12.15;;;8.40;99.90;;;;;;4913250;29;20441;-74
2022/04/06 00:08:57;;;;;;;25.95;10.73;;;8.10;99.90;;;;;;4899232;29;20036;-72
2022/04/06 00:11:23;;;;;;;31.95;11.77;;;8.10;99.90;;;;;;4896768;29;20052;-75
2022/04/06 00:13:49;;;;;;;29.65;11.63;;;8.10;99.90;;;;;;4913186;29;20060;-73
2022/04/06 00:16:15;;;;;;;26.88;10.25;;;8.20;99.90;;;;;;4913990;29;20056;-77
2022/04/06 00:18:41;;;;;;;30.77;11.80;;;8.10;99.90;;;;;;4911529;29;20041;-76
2022/04/06 00:21:07;;;;;;;28.88;11.90;;;8.10;99.90;;;;;;4912514;29;20119;-75
2022/04/06 00:23:33;;;;;;;35.10;12.45;;;8.20;99.90;;;;;;4913703;29;20505;-80
2022/04/06 00:25:58;;;;;;;30.48;12.98;;;8.20;99.90;;;;;;4913407;29;20071;-75
2022/04/06 00:28:24;;;;;;;31.38;12.10;;;8.20;99.90;;;;;;4892552;29;20044;-74
2022/04/06 00:30:50;;;;;;;25.88;11.52;;;8.10;99.90;;;;;;4911311;29;20058;-81
2022/04/06 00:33:15;;;;;;;27.35;10.93;;;8.30;99.90;;;;;;4907915;29;20064;-79
2022/04/06 00:35:42;;;;;;;30.95;12.10;;;8.10;99.90;;;;;;4910442;29;20100;-76
2022/04/06 00:38:08;;;;;;;28.98;11.73;;;8.20;99.90;;;;;;4912241;29;20377;-81
2022/04/06 00:40:35;;;;;;;30.88;11.13;;;8.20;99.90;;;;;;4908908;29;20090;-74
2022/04/06 00:43:06;;;;;;;32.80;11.93;;;8.20;99.90;;;;;;4909185;29;20048;-75
2022/04/06 00:45:32;;;;;;;29.38;11.07;;;8.20;99.90;;;;;;4910162;29;20084;-74
2022/04/06 00:47:58;;;;;;;25.08;12.07;;;8.20;99.90;;;;;;4911686;29;20079;-75
2022/04/06 00:50:24;;;;;;;28.83;10.60;;;8.20;99.90;;;;;;4910022;29;20405;-76
2022/04/06 00:52:55;;;;;;;27.63;11.05;;;8.20;99.90;;;;;;4909753;29;20100;-76
2022/04/06 00:55:21;;;;;;;29.10;11.10;;;8.20;99.90;;;;;;4911967;29;20127;-79
2022/04/06 00:57:48;;;;;;;30.90;10.98;;;8.50;99.90;;;;;;4911493;29;20052;-80
2022/04/06 01:00:15;;;;;;;29.10;11.60;;;8.20;99.90;;;;;;4896073;29;20074;-74
2022/04/06 01:02:41;;;;;;;27.08;10.30;;;8.20;99.90;;;;;;4896057;29;20089;-77
2022/04/06 01:05:07;;;;;;;26.60;10.32;;;8.20;99.90;;;;;;4910210;29;20056;-71
2022/04/06 01:07:33;;;;;;;32.05;11.18;;;8.20;99.90;;;;;;4911146;29;20064;-77
2022/04/06 01:10:11;;;;;;;25.30;11.25;;;8.20;99.90;;;;;;4909152;29;20049;-80
2022/04/06 01:12:40;;;;;;;27.67;11.05;;;8.20;99.90;;;;;;4910335;29;20055;-79
2022/04/06 01:15:07;;;;;;;33.03;12.45;;;8.20;99.90;;;;;;4911346;29;20072;-75
2022/04/06 01:17:34;;;;;;;31.23;11.70;;;8.30;99.90;;;;;;4911177;29;20044;-78
2022/04/06 01:20:01;;;;;;;28.15;12.30;;;8.30;99.90;;;;;;4908821;29;20068;-73
2022/04/06 01:22:27;;;;;;;28.20;11.93;;;8.30;99.90;;;;;;4901272;29;20497;-75
2022/04/06 01:24:53;;;;;;;29.05;11.07;;;8.30;99.90;;;;;;4906574;29;20041;-73
2022/04/06 01:27:19;;;;;;;30.75;12.25;;;8.60;99.90;;;;;;4897102;29;20064;-74
2022/04/06 01:29:45;;;;;;;27.05;11.88;;;8.30;99.90;;;;;;4910277;29;20037;-73
2022/04/06 01:32:15;;;;;;;25.63;12.65;;;8.30;99.90;;;;;;4910657;29;20020;-73
2022/04/06 01:34:41;;;;;;;28.23;12.05;;;8.30;99.90;;;;;;4911243;29;20039;-75
2022/04/06 01:37:09;;;;;;;29.45;13.10;;;8.30;99.90;;;;;;4911767;29;20041;-75
2022/04/06 01:39:37;;;;;;;27.23;12.68;;;8.50;99.90;;;;;;4911383;29;20052;-73
2022/04/06 01:42:05;;;;;;;25.23;12.13;;;8.40;99.90;;;;;;4906867;29;20045;-72
2022/04/06 01:44:32;;;;;;;26.58;13.13;;;8.30;99.90;;;;;;4908346;29;20072;-79
2022/04/06 01:46:58;;;;;;;27.75;12.57;;;8.30;99.90;;;;;;4896723;29;20044;-75
2022/04/06 01:52:12;;;;;;;23.80;12.20;;;8.30;99.90;;;;;;4910632;29;20408;-74
2022/04/06 01:55:01;;;;;;;30.20;11.48;;;8.60;99.90;;;;;;4912519;29;20142;-78
2022/04/06 01:57:31;;;;;;;22.73;10.93;;;8.40;99.90;;;;;;4913844;29;20068;-73
2022/04/06 01:59:58;;;;;;;26.77;11.55;;;8.40;99.90;;;;;;4912940;29;20240;-73
2022/04/06 02:02:28;;;;;;;24.25;11.10;;;8.40;99.90;;;;;;4912910;29;20040;-77
2022/04/06 02:04:54;;;;;;;22.60;11.07;;;8.40;99.90;;;;;;4914907;29;20037;-74
2022/04/06 02:07:19;;;;;;;29.05;10.38;;;8.50;99.90;;;;;;4915755;29;20125;-74
2022/04/06 02:09:45;;;;;;;23.00;10.10;;;8.40;99.90;;;;;;4915244;29;20082;-75
2022/04/06 02:12:12;;;;;;;25.13;11.05;;;8.50;99.90;;;;;;4918695;29;20116;-77
2022/04/06 02:14:39;;;;;;;26.65;11.13;;;8.40;99.90;;;;;;4918012;29;20044;-73
2022/04/06 02:17:05;;;;;;;21.52;9.68;;;8.40;99.90;;;;;;4912049;29;20414;-80
2022/04/06 02:19:31;;;;;;;25.17;10.52;;;8.40;99.90;;;;;;4898880;29;20049;-80
2022/04/06 02:21:57;;;;;;;23.80;10.80;;;8.80;99.90;;;;;;4899096;29;20135;-81
2022/04/06 02:24:23;;;;;;;24.13;10.50;;;8.40;99.90;;;;;;4899269;29;20104;-80
2022/04/06 02:26:49;;;;;;;20.50;9.35;;;8.60;99.90;;;;;;4882204;29;20051;-79
2022/04/06 02:29:15;;;;;;;22.00;9.32;;;8.40;99.90;;;;;;4899025;29;20060;-77
2022/04/06 02:31:42;;;;;;;25.00;9.80;;;8.40;99.90;;;;;;4898782;29;20041;-80
2022/04/06 02:34:07;;;;;;;20.75;9.88;;;8.40;99.90;;;;;;4898885;29;20044;-80
2022/04/06 02:36:33;;;;;;;23.17;9.40;;;8.40;99.90;;;;;;4882203;29;20040;-77
2022/04/06 02:39:00;;;;;;;23.75;9.20;;;8.70;99.90;;;;;;4898928;29;20088;-79
2022/04/06 02:41:26;;;;;;;22.58;8.75;;;8.40;99.90;;;;;;4898983;29;20048;-80
2022/04/06 02:43:51;;;;;;;26.75;8.63;;;8.80;99.90;;;;;;4898539;29;20099;-81
2022/04/06 02:46:17;;;;;;;24.58;8.77;;;8.40;99.90;;;;;;4897993;29;20061;-80
2022/04/06 02:48:43;;;;;;;16.38;7.68;;;8.80;99.90;;;;;;4866368;29;20053;-79
2022/04/06 02:51:08;;;;;;;19.15;7.63;;;8.50;99.90;;;;;;4898348;29;20044;-80
2022/04/06 02:53:34;;;;;;;19.13;7.20;;;8.40;99.90;;;;;;4898284;29;20354;-77
2022/04/06 02:56:00;;;;;;;16.20;7.13;;;8.90;99.90;;;;;;4898384;29;20075;-80
2022/04/06 02:58:28;;;;;;;18.27;6.20;;;8.70;99.90;;;;;;4898291;29;20041;-79
2022/04/06 03:00:56;;;;;;;19.45;7.80;;;8.50;99.90;;;;;;4880586;29;20286;-79
2022/04/06 03:03:22;;;;;;;13.75;6.85;;;8.40;99.90;;;;;;4897698;29;20405;-79
2022/04/06 03:05:48;;;;;;;16.23;6.70;;;8.50;99.90;;;;;;4880780;29;20413;-81
2022/04/06 03:08:15;;;;;;;18.80;6.47;;;8.50;99.90;;;;;;4897598;29;20052;-80
2022/04/06 03:10:43;;;;;;;15.27;6.05;;;8.40;99.90;;;;;;4897471;29;20056;-80
2022/04/06 03:13:09;;;;;;;17.55;5.80;;;8.60;99.90;;;;;;4881057;29;20040;-81
2022/04/06 03:15:35;;;;;;;16.23;5.75;;;8.40;99.90;;;;;;4880923;29;20053;-79
2022/04/06 03:18:02;;;;;;;14.68;6.03;;;8.40;99.90;;;;;;4864443;29;20056;-79
2022/04/06 03:20:27;;;;;;;20.08;6.55;;;8.40;99.90;;;;;;4897178;29;20143;-80
2022/04/06 03:22:53;;;;;;;17.02;6.18;;;8.40;99.90;;;;;;4880951;29;20123;-80
2022/04/06 03:25:19;;;;;;;15.75;6.07;;;8.50;99.90;;;;;;4897494;29;20493;-78
2022/04/06 03:27:44;;;;;;;16.77;6.25;;;8.40;99.90;;;;;;4880597;29;20091;-80
2022/04/06 03:30:14;;;;;;;18.05;6.65;;;8.40;99.90;;;;;;4884232;29;20087;-80
2022/04/06 03:32:40;;;;;;;16.17;5.97;;;8.30;99.90;;;;;;4900949;29;20072;-80
2022/04/06 03:35:08;;;;;;;16.15;6.20;;;8.70;99.90;;;;;;4900573;29;20499;-80
2022/04/06 03:37:34;;;;;;;21.42;5.95;;;8.40;99.90;;;;;;4900673;29;20056;-74
2022/04/06 03:40:01;;;;;;;19.15;6.30;;;8.50;99.90;;;;;;4900775;29;20048;-78
2022/04/06 03:42:27;;;;;;;16.98;6.25;;;8.40;99.90;;;;;;4900789;29;20489;-80
2022/04/06 03:44:53;;;;;;;21.17;6.60;;;8.40;99.90;;;;;;4884138;29;20045;-72
2022/04/06 03:47:18;;;;;;;20.20;7.47;;;8.30;99.90;;;;;;4867878;29;20135;-79
2022/04/06 03:49:44;;;;;;;20.48;7.50;;;8.30;99.90;;;;;;4900510;29;20049;-80
2022/04/06 03:52:10;;;;;;;21.52;6.90;;;8.80;99.90;;;;;;4900363;29;20393;-80
2022/04/06 03:54:36;;;;;;;25.27;7.45;;;8.40;99.90;;;;;;4900627;29;20127;-74
2022/04/06 03:57:02;;;;;;;19.00;7.30;;;8.60;99.90;;;;;;4900739;29;20083;-73
2022/04/06 03:59:27;;;;;;;18.38;7.70;;;8.30;99.90;;;;;;4900220;29;20056;-73
2022/04/06 04:01:53;;;;;;;25.13;8.00;;;8.30;99.90;;;;;;4900403;29;20044;-78
2022/04/06 04:04:18;;;;;;;22.77;8.10;;;8.30;99.90;;;;;;4899937;29;20097;-74
2022/04/06 04:06:44;;;;;;;24.85;7.93;;;8.30;99.90;;;;;;4899773;29;20051;-80
2022/04/06 04:09:10;;;;;;;25.95;8.55;;;8.30;99.90;;;;;;4899743;29;20408;-72
2022/04/06 04:11:35;;;;;;;23.75;8.40;;;8.30;99.90;;;;;;4900085;29;20044;-74
2022/04/06 04:14:01;;;;;;;25.48;8.80;;;8.30;99.90;;;;;;4900172;29;20053;-79
2022/04/06 04:16:27;;;;;;;22.58;10.18;;;8.30;99.90;;;;;;4883090;29;20092;-72
2022/04/06 04:18:52;;;;;;;24.65;8.02;;;8.30;99.90;;;;;;4899768;29;20050;-72
2022/04/06 04:21:33;;;;;;;27.90;8.50;;;8.30;99.90;;;;;;4899214;29;20068;-75
2022/04/06 04:24:03;;;;;;;19.55;8.77;;;8.30;99.90;;;;;;4899930;29;20052;-80
2022/04/06 04:26:29;;;;;;;24.90;8.70;;;8.30;99.90;;;;;;4899978;29;20057;-80
2022/04/06 04:28:56;;;;;;;21.45;8.75;;;8.30;99.90;;;;;;4900063;29;20041;-79
2022/04/06 04:31:22;;;;;;;30.35;9.40;;;8.30;99.90;;;;;;4882792;29;20103;-80
2022/04/06 04:33:48;;;;;;;23.60;9.23;;;8.30;99.90;;;;;;4899789;29;20059;-79
2022/04/06 04:36:13;;;;;;;24.73;8.95;;;8.30;99.90;;;;;;4882918;29;20044;-80
2022/04/06 04:38:39;;;;;;;21.17;10.32;;;8.50;99.90;;;;;;4898813;29;20493;-78
2022/04/06 04:41:08;;;;;;;25.48;9.98;;;8.40;99.90;;;;;;4899006;29;20488;-80
2022/04/06 04:43:35;;;;;;;23.17;10.02;;;8.50;99.90;;;;;;4900029;29;20041;-80
2022/04/06 04:46:00;;;;;;;22.08;7.57;;;8.50;99.90;;;;;;4899875;29;20045;-79
2022/04/06 04:48:26;;;;;;;19.85;6.50;;;8.40;99.90;;;;;;4866955;29;20060;-74
2022/04/06 04:50:52;;;;;;;23.25;6.47;;;8.40;99.90;;;;;;4899443;29;20040;-79
2022/04/06 04:53:17;;;;;;;15.63;6.03;;;8.40;99.90;;;;;;4898669;29;20052;-79
2022/04/06 04:55:43;;;;;;;25.60;8.05;;;8.40;99.90;;;;;;4899188;29;20052;-79
2022/04/06 04:58:09;;;;;;;21.83;6.68;;;8.90;99.90;;;;;;4899230;29;20036;-80
2022/04/06 05:00:35;;;;;;;19.98;7.32;;;8.40;99.90;;;;;;4898243;29;20409;-79
2022/04/06 05:03:02;;;;;;;19.92;7.10;;;8.40;99.90;;;;;;4899415;29;20055;-79
2022/04/06 05:05:28;;;;;;;18.65;6.63;;;8.40;99.90;;;;;;4882016;29;20080;-79
2022/04/06 05:07:57;;;;;;;18.63;6.68;;;8.40;99.90;;;;;;4898905;29;20485;-79
2022/04/06 05:10:26;;;;;;;15.43;6.03;;;8.40;99.90;;;;;;4899004;29;20048;-78
2022/04/06 05:12:52;;;;;;;26.30;6.47;;;8.30;99.90;;;;;;4898983;29;20299;-78
2022/04/06 05:15:19;;;;;;;19.30;6.22;;;8.30;99.90;;;;;;4882363;29;20462;-79
2022/04/06 05:17:45;;;;;;;17.65;6.70;;;8.30;99.90;;;;;;4899000;29;20043;-78
2022/04/06 05:20:11;;;;;;;18.73;6.95;;;8.90;99.90;;;;;;4898777;29;20060;-78
2022/04/06 05:22:37;;;;;;;19.67;6.65;;;8.50;99.90;;;;;;4898933;29;20104;-79
2022/04/06 05:25:10;;;;;;;19.73;5.75;;;8.30;99.90;;;;;;4897932;29;20046;-78
2022/04/06 05:27:49;;;;;;;17.27;6.25;;;8.30;99.90;;;;;;4898015;29;20040;-88
2022/04/06 05:30:16;;;;;;;17.02;5.45;;;8.30;99.90;;;;;;4898305;29;20052;-80
2022/04/06 05:32:42;;;;;;;14.05;5.05;;;8.60;99.90;;;;;;4897814;29;20040;-74
2022/04/06 05:35:09;;;;;;;15.52;4.65;;;8.30;99.90;;;;;;4897326;29;20421;-76
2022/04/06 05:37:39;;;;;;;14.88;4.68;;;8.20;99.90;;;;;;4897830;29;20045;-75
2022/04/06 05:40:13;;;;;;;15.43;4.68;;;8.20;99.90;;;;;;4880711;29;20463;-90
2022/04/06 05:42:39;;;;;;;15.48;5.20;;;8.10;99.90;;;;;;4880926;29;20488;-86
2022/04/06 05:45:27;;;;;;;17.30;4.75;;;9.10;99.90;;;;;;4881197;29;20061;-80
2022/04/06 05:47:56;;;;;;;10.55;4.40;;;7.50;99.90;;;;;;4864727;29;21143;-81
2022/04/06 05:50:22;;;;;;;12.80;4.80;;;8.20;99.90;;;;;;4881121;29;20083;-80
2022/04/06 05:52:48;;;;;;;12.60;4.57;;;8.40;99.90;;;;;;4880303;29;20531;-80
2022/04/06 05:55:20;;;;;;;13.07;3.90;;;8.60;99.90;;;;;;4880989;29;20457;-82
2022/04/06 05:57:46;;;;;;;15.13;5.22;;;8.30;99.90;;;;;;4896776;29;20055;-81
2022/04/06 06:00:13;;;;;;;12.65;3.92;;;8.50;99.90;;;;;;4864334;29;20041;-80
2022/04/06 06:02:39;;;;;;;13.02;3.55;;;8.30;99.90;;;;;;4864503;29;20091;-80
2022/04/06 06:05:05;;;;;;;11.13;4.10;;;8.30;99.90;;;;;;4880068;29;20511;-81
2022/04/06 06:07:31;;;;;;;20.92;4.32;;;8.30;99.90;;;;;;4880879;29;20063;-81
2022/04/06 06:09:57;;;;;;;13.13;4.25;;;8.30;99.90;;;;;;4880163;29;20175;-81
2022/04/06 06:12:23;;;;;;;11.55;3.67;;;9.20;99.90;;;;;;4898082;29;20081;-80
2022/04/06 06:14:49;;;;;;;14.80;4.85;;;8.50;99.90;;;;;;4880876;29;20048;-78
2022/04/06 06:17:15;;;;;;;10.38;3.45;;;8.60;99.90;;;;;;4866162;29;20053;-78
2022/04/06 06:19:40;;;;;;;14.63;3.72;;;8.80;99.90;;;;;;4865903;29;20122;-80
2022/04/06 06:22:24;;;;;;;11.52;3.47;;;8.50;99.90;;;;;;4897763;29;20063;-83
2022/04/06 06:24:53;;;;;;;15.68;3.97;;;9.60;99.90;;;;;;4881001;29;20044;-81
2022/04/06 06:27:24;;;;;;;13.95;3.55;;;8.40;99.90;;;;;;4897374;29;20092;-79
2022/04/06 06:29:51;;;;;;;13.98;3.58;;;9.40;99.90;;;;;;4880871;29;20044;-80
2022/04/06 06:32:17;;;;;;;8.05;2.88;;;8.80;99.90;;;;;;4880326;29;20059;-83
2022/04/06 06:34:42;;;;;;;18.20;3.92;;;8.40;99.90;;;;;;4865020;29;20056;-80
2022/04/06 06:37:10;;;;;;;12.57;3.40;;;8.40;99.90;;;;;;4880417;29;20067;-84
2022/04/06 06:39:36;;;;;;;14.18;3.97;;;8.40;99.90;;;;;;4880221;29;20184;-83
2022/04/06 06:42:04;;;;;;;11.30;3.60;;;9.20;99.90;;;;;;4880905;29;20119;-92
2022/04/06 06:44:29;;;;;;;11.50;3.20;;;8.40;99.90;;;;;;4901457;29;20132;-91
2022/04/06 06:46:55;;;;;;;11.40;3.55;;;8.40;99.90;;;;;;4884014;29;20057;-85
2022/04/06 06:49:21;;;;;;;9.07;3.05;;;8.40;99.90;;;;;;4864243;29;20401;-91
2022/04/06 06:51:48;;;;;;;10.18;2.78;;;8.40;99.90;;;;;;4881113;29;20072;-89
2022/04/06 06:54:13;;;;;;;9.40;3.00;;;8.40;99.90;;;;;;4881068;29;20610;-91
2022/04/06 06:56:39;;;;;;;8.77;3.03;;;8.50;99.90;;;;;;4898534;29;20052;-88
2022/04/06 06:59:05;;;;;;;11.55;3.03;;;8.30;99.90;;;;;;4901257;29;20067;-88
2022/04/06 07:01:30;;;;;;;12.10;2.72;;;8.30;99.90;;;;;;4903413;29;20080;-89
2022/04/06 07:03:56;;;;;;;11.68;3.00;;;8.60;99.90;;;;;;4908065;29;20048;-89
2022/04/06 07:06:22;;;;;;;12.00;2.72;;;8.30;99.90;;;;;;4908408;29;20059;-89
2022/04/06 07:08:47;;;;;;;12.05;2.60;;;8.20;99.90;;;;;;4907389;29;20044;-87
2022/04/06 07:11:13;;;;;;;15.60;2.80;;;8.20;99.90;;;;;;4884154;29;20051;-89
2022/04/06 07:13:39;;;;;;;13.63;3.33;;;9.00;99.90;;;;;;4884985;29;20053;-90
2022/04/06 07:16:05;;;;;;;16.83;3.55;;;8.20;99.90;;;;;;4904528;29;20052;-90
2022/04/06 07:18:32;;;;;;;10.02;2.72;;;8.20;99.90;;;;;;4882509;29;20080;-91
2022/04/06 07:20:58;;;;;;;6.80;1.85;;;8.20;99.90;;;;;;4865302;29;1088189;-88
2022/04/06 07:23:24;;;;;;;9.57;2.47;;;8.30;99.90;;;;;;4884691;29;20052;-81
2022/04/06 07:25:49;;;;;;;6.88;2.60;;;8.30;99.90;;;;;;4915301;29;20111;-77
2022/04/06 07:28:15;;;;;;;8.93;2.40;;;8.30;99.90;;;;;;4912269;29;20036;-89
2022/04/06 07:30:41;;;;;;;8.00;2.63;;;8.30;99.90;;;;;;4897598;29;20172;-82
2022/04/06 07:33:09;;;;;;;9.10;2.88;;;8.30;99.90;;;;;;4903404;29;20040;-92
2022/04/06 07:35:35;;;;;;;11.85;2.92;;;8.30;99.90;;;;;;4904760;29;20047;-93
2022/04/06 07:38:01;;;;;;;10.57;3.85;;;8.30;99.90;;;;;;4930847;29;20084;-89
2022/04/06 07:40:27;;;;;;;10.68;2.38;;;8.30;99.90;;;;;;4934543;29;20044;-94
2022/04/06 07:42:55;;;;;;;11.10;3.15;;;8.30;99.90;;;;;;4908091;29;20087;-94
2022/04/06 07:45:21;;;;;;;9.75;2.63;;;8.30;99.90;;;;;;4891427;29;20048;-91
2022/04/06 07:47:49;;;;;;;9.68;3.15;;;8.70;99.90;;;;;;4888476;29;20044;-89
2022/04/06 07:50:16;;;;;;;9.23;2.78;;;8.30;99.90;;;;;;4920307;29;20048;-89
2022/04/06 07:52:43;;;;;;;7.75;2.55;;;8.70;99.90;;;;;;4918871;29;20052;-90
2022/04/06 07:55:10;;;;;;;9.02;2.42;;;8.70;99.90;;;;;;4887100;29;20047;-93
2022/04/06 07:57:37;;;;;;;10.18;3.10;;;8.40;99.90;;;;;;4915819;29;20054;-93
2022/04/06 08:00:15;;;;;;;11.45;3.38;;;8.40;99.90;;;;;;4917541;29;20579;-75
2022/04/06 08:02:43;;;;;;;9.88;2.80;;;8.50;99.90;;;;;;4894926;29;20552;-82
2022/04/06 08:05:09;;;;;;;14.05;2.63;;;8.50;99.90;;;;;;4899819;29;20044;-78
2022/04/06 08:07:39;;;;;;;10.35;2.65;;;8.40;99.90;;;;;;4883730;29;20052;-80
2022/04/06 08:10:08;;;;;;;12.50;3.00;;;8.40;99.90;;;;;;4882487;29;20065;-83
2022/04/06 08:12:34;;;;;;;12.32;2.95;;;8.40;99.90;;;;;;4880060;29;20060;-78
2022/04/06 08:15:00;;;;;;;8.02;2.85;;;8.40;99.90;;;;;;4862576;29;20060;-78
2022/04/06 08:17:26;;;;;;;10.02;2.80;;;8.40;99.90;;;;;;4896918;29;20493;-79
2022/04/06 08:19:52;;;;;;;8.60;3.15;;;8.40;99.90;;;;;;4876825;29;20071;-81
2022/04/06 08:22:17;;;;;;;15.75;3.28;;;8.40;99.90;;;;;;4879471;29;20056;-77
2022/04/06 08:24:43;;;;;;;15.48;4.05;;;8.40;99.90;;;;;;4894217;29;20044;-82
2022/04/06 08:27:09;;;;;;;14.20;3.38;;;8.40;99.90;;;;;;4898334;29;20053;-83
2022/04/06 08:29:34;;;;;;;10.35;3.22;;;8.90;99.90;;;;;;4895516;29;20052;-75
2022/04/06 08:32:00;;;;;;;10.52;3.42;;;8.40;99.90;;;;;;4898094;29;20397;-76
2022/04/06 08:34:27;;;;;;;14.82;3.78;;;8.40;99.90;;;;;;4895116;29;20053;-79
2022/04/06 08:36:52;;;;;;;9.50;3.60;;;8.50;99.90;;;;;;4880456;29;20069;-77
2022/04/06 08:39:18;;;;;;;11.00;3.47;;;8.50;99.90;;;;;;4880362;29;20060;-80
2022/04/06 08:41:44;;;;;;;17.63;4.50;;;9.00;99.90;;;;;;4880971;29;20049;-81
2022/04/06 08:44:10;;;;;;;14.82;4.20;;;8.50;99.90;;;;;;4878084;29;20084;-73
2022/04/06 08:46:39;;;;;;;11.30;3.85;;;8.70;99.90;;;;;;4897892;29;20079;-78
2022/04/06 08:49:04;;;;;;;15.95;4.10;;;8.60;99.90;;;;;;4897666;29;20055;-79
2022/04/06 08:51:33;;;;;;;12.25;4.22;;;8.60;99.90;;;;;;4897280;29;20048;-79
2022/04/06 08:53:59;;;;;;;11.57;4.22;;;8.60;99.90;;;;;;4879732;29;20068;-74
2022/04/06 08:56:25;;;;;;;15.45;4.25;;;8.70;99.90;;;;;;4877307;29;20048;-80
2022/04/06 08:58:51;;;;;;;14.93;4.38;;;8.60;99.90;;;;;;4896806;29;20049;-79
2022/04/06 09:01:18;;;;;;;10.45;3.50;;;8.60;99.90;;;;;;4896683;29;20056;-75
2022/04/06 09:03:44;;;;;;;10.82;3.42;;;8.70;99.90;;;;;;4896549;29;20061;-74
2022/04/06 09:06:12;;;;;;;9.55;4.03;;;8.70;99.90;;;;;;4894050;29;20043;-76
2022/04/06 09:08:43;;;;;;;15.00;4.38;;;8.70;99.90;;;;;;4896830;29;20059;-71
2022/04/06 09:11:13;;;;;;;9.85;4.53;;;8.60;99.90;;;;;;4898200;29;20132;-78
2022/04/06 09:13:41;;;;;;;10.20;4.10;;;8.60;99.90;;;;;;4898886;29;20056;-82
2022/04/06 09:16:09;;;;;;;11.13;3.88;;;8.70;99.90;;;;;;4894572;29;20048;-74
2022/04/06 09:18:40;;;;;;;9.57;3.45;;;8.70;99.90;;;;;;4897956;29;20135;-82
2022/04/06 09:21:11;;;;;;;12.30;4.07;;;8.70;99.90;;;;;;4898227;29;20069;-76
2022/04/06 09:23:38;;;;;;;11.77;3.63;;;9.20;99.90;;;;;;4897681;29;20041;-80
2022/04/06 09:26:08;;;;;;;10.90;3.45;;;8.70;99.90;;;;;;4875694;29;20648;-78
2022/04/06 09:28:42;;;;;;;11.43;3.60;;;8.70;99.90;;;;;;4878396;29;20075;-77
2022/04/06 09:31:08;;;;;;;9.60;3.58;;;9.10;99.90;;;;;;4895447;29;20048;-73
2022/04/06 09:33:39;;;;;;;12.30;4.15;;;8.80;99.90;;;;;;4897042;29;20064;-75
2022/04/06 09:36:29;;;;;;;8.75;3.10;;;8.90;99.90;;;;;;4895033;29;20161;-79
2022/04/06 09:38:55;;;;;;;11.25;3.55;;;9.00;99.90;;;;;;4880233;29;20472;-77
2022/04/06 09:41:21;;;;;;;16.98;3.33;;;9.60;99.90;;;;;;4895942;29;20124;-74
2022/04/06 09:43:47;;;;;;;11.63;3.22;;;9.20;99.90;;;;;;4879789;29;20425;-79
2022/04/06 09:49:10;;;;;;;8.23;3.17;;;9.50;99.90;;;;;;4880058;29;20048;-78
2022/04/06 09:51:38;;;;;;;10.68;3.47;;;9.60;99.90;;;;;;4894336;29;20048;-78
2022/04/06 09:54:05;;;;;;;8.98;2.83;;;9.70;99.90;;;;;;4879719;29;20069;-73
2022/04/06 09:56:33;;;;;;;10.30;3.22;;;9.70;99.90;;;;;;4895695;29;20041;-81
2022/04/06 09:58:59;;;;;;;8.95;3.45;;;9.70;99.90;;;;;;4897611;29;20059;-80
2022/04/06 10:01:32;;;;;;;7.32;2.58;;;9.70;99.90;;;;;;4879849;29;20075;-82
2022/04/06 10:04:05;;;;;;;9.75;2.40;;;9.60;99.90;;;;;;4879915;29;20080;-79
2022/04/06 10:06:33;;;;;;;8.75;2.70;;;9.60;99.90;;;;;;4880407;29;20098;-78
2022/04/06 10:09:04;;;;;;;10.57;3.05;;;9.50;99.90;;;;;;4881869;29;20057;-79
2022/04/06 10:11:33;;;;;;;9.93;2.55;;;9.60;99.90;;;;;;4896699;29;20123;-81
2022/04/06 10:14:00;;;;;;;11.32;3.38;;;9.60;99.90;;;;;;4879989;29;20070;-80
2022/04/06 10:16:26;;;;;;;10.63;3.30;;;9.60;99.90;;;;;;4895404;29;20049;-82
2022/04/06 10:18:53;;;;;;;15.25;3.47;;;9.70;99.90;;;;;;4880269;29;20125;-78
2022/04/06 10:21:45;;;;;;;13.10;3.80;;;9.60;99.90;;;;;;4882401;29;20121;-81
2022/04/06 10:24:39;;;;;;;10.00;3.20;;;9.70;99.90;;;;;;4894415;29;20045;-76
2022/04/06 10:27:23;;;;;;;8.30;3.28;;;9.70;99.90;;;;;;4878562;29;20072;-82
2022/04/06 10:30:15;;;;;;;8.77;3.38;;;9.80;99.90;;;;;;4873674;29;20101;-78
2022/04/06 10:32:43;;;;;;;8.45;2.75;;;9.80;99.90;;;;;;4875844;29;20577;-72
2022/04/06 10:35:27;;;;;;;10.43;2.97;;;9.70;99.90;;;;;;4876447;29;20067;-74
2022/04/06 10:37:59;;;;;;;10.43;3.50;;;9.80;99.90;;;;;;4878022;29;20053;-85
2022/04/06 10:40:48;;;;;;;8.02;2.95;;;9.90;99.90;;;;;;4877787;29;20044;-80
2022/04/06 10:43:43;;;;;;;8.85;3.42;;;9.70;99.90;;;;;;4878289;29;20056;-79
2022/04/06 10:46:17;;;;;;;15.52;3.83;;;9.60;99.90;;;;;;4892067;29;20067;-72
2022/04/06 10:49:15;;;;;;;11.40;3.72;;;10.10;99.90;;;;;;4896859;29;20049;-72
2022/04/06 10:51:49;;;;;;;8.68;3.45;;;9.60;99.90;;;;;;4877465;29;20424;-82
2022/04/06 10:54:15;;;;;;;12.25;4.05;;;9.60;99.90;;;;;;4878358;29;20048;-74
2022/04/06 10:56:49;;;;;;;10.55;3.67;;;9.60;99.90;;;;;;4896822;29;20438;-76
2022/04/06 10:59:19;;;;;;;13.75;4.00;;;9.60;99.90;;;;;;4895932;29;20131;-71
2022/04/06 11:01:48;;;;;;;8.73;4.07;;;9.50;99.90;;;;;;4893363;29;20057;-78
2022/04/06 11:04:21;;;;;;;10.43;4.30;;;9.60;99.90;;;;;;4893086;29;20386;-71
2022/04/06 11:06:49;;;;;;;10.13;3.70;;;9.60;99.90;;;;;;4878993;29;20101;-74
2022/04/06 11:12:16;;;;;;;10.68;4.07;;;9.60;99.90;;;;;;4877912;29;20488;-76
2022/04/06 11:14:50;;;;;;;11.35;4.05;;;9.60;99.90;;;;;;4889699;29;20076;-83
2022/04/06 11:17:44;;;;;;;15.93;4.18;;;9.50;99.90;;;;;;4894264;29;20048;-76
2022/04/06 11:20:30;;;;;;;11.93;4.10;;;9.40;99.90;;;;;;4860095;29;20053;-78
2022/04/06 11:22:57;;;;;;;13.23;3.95;;;9.40;99.90;;;;;;4892736;29;20136;-83
2022/04/06 11:25:28;;;;;;;11.90;4.70;;;9.50;99.90;;;;;;4874968;29;20060;-78
2022/04/06 11:28:15;;;;;;;16.63;4.78;;;9.40;99.90;;;;;;4894158;29;20049;-84
2022/04/06 11:30:44;;;;;;;16.52;5.07;;;9.40;99.90;;;;;;4877441;29;20048;-75
2022/04/06 11:33:09;;;;;;;9.45;4.43;;;10.00;99.90;;;;;;4893126;29;20093;-81
2022/04/06 11:35:36;;;;;;;14.30;4.82;;;9.50;99.90;;;;;;4872637;29;20461;-77
2022/04/06 11:38:07;;;;;;;11.38;3.70;;;9.50;99.90;;;;;;4878438;29;20488;-81
2022/04/06 11:40:37;;;;;;;11.50;4.70;;;9.50;99.90;;;;;;4877376;29;20554;-88
2022/04/06 11:43:05;;;;;;;16.08;5.22;;;9.70;99.90;;;;;;4891463;29;20127;-79
2022/04/06 11:45:44;;;;;;;10.65;4.20;;;9.60;99.90;;;;;;4893325;29;20055;-80
2022/04/06 11:48:15;;;;;;;13.18;4.97;;;9.70;99.90;;;;;;4895070;29;20057;-79
2022/04/06 11:50:43;;;;;;;12.25;5.03;;;9.80;99.90;;;;;;4878596;29;20404;-78
2022/04/06 11:53:15;;;;;;;13.43;4.25;;;9.80;99.90;;;;;;4889836;29;20521;-77
2022/04/06 11:55:49;;;;;;;12.50;4.28;;;10.20;99.90;;;;;;4878579;29;20116;-79
2022/04/06 11:58:33;;;;;;;11.88;4.82;;;9.80;99.90;;;;;;4894216;29;20032;-84
2022/04/06 12:01:17;;;;;;;9.88;3.95;;;9.90;99.90;;;;;;4893903;29;20414;-82
2022/04/06 12:03:44;;;;;;;12.73;4.40;;;9.80;99.90;;;;;;4897068;29;20049;-84
2022/04/06 12:06:14;;;;;;;11.70;4.25;;;9.80;99.90;;;;;;4875625;29;20509;-78
2022/04/06 12:08:41;;;;;;;13.40;5.43;;;9.90;99.90;;;;;;4879840;29;20091;-83
2022/04/06 12:11:08;;;;;;;15.88;4.68;;;10.00;99.90;;;;;;4896446;29;20056;-79
2022/04/06 12:13:44;;;;;;;12.93;4.75;;;10.20;99.90;;;;;;4896238;29;20088;-79
2022/04/06 12:16:10;;;;;;;12.38;4.80;;;10.30;99.90;;;;;;4877540;29;20517;-82
2022/04/06 12:18:41;;;;;;;12.65;4.43;;;10.40;99.90;;;;;;4901676;29;20088;-76
2022/04/06 12:21:19;;;;;;;12.82;5.30;;;10.60;99.90;;;;;;4895641;29;20441;-80
2022/04/06 12:23:45;;;;;;;10.30;3.88;;;10.60;99.90;;;;;;4895137;29;20516;-82
2022/04/06 12:26:11;;;;;;;11.77;4.60;;;10.50;99.90;;;;;;4878563;29;20072;-81
2022/04/06 12:28:37;;;;;;;12.70;4.68;;;10.50;99.90;;;;;;4880486;29;20095;-83
2022/04/06 12:31:07;;;;;;;13.98;4.53;;;10.40;99.90;;;;;;4895594;29;20052;-77
2022/04/06 12:33:47;;;;;;;12.80;4.50;;;10.20;99.90;;;;;;4879113;29;20135;-83
2022/04/06 12:36:15;;;;;;;11.75;4.15;;;10.10;99.90;;;;;;4862236;29;20060;-85
2022/04/06 12:39:13;;;;;;;13.93;4.28;;;10.30;99.90;;;;;;4880617;29;20048;-84
2022/04/06 12:42:12;;;;;;;13.82;4.78;;;10.00;99.90;;;;;;4891249;29;20067;-84
2022/04/06 12:44:38;;;;;;;11.98;4.15;;;10.20;99.90;;;;;;4833075;29;20118;-83
2022/04/06 12:47:17;;;;;;;13.52;5.40;;;10.20;99.90;;;;;;4845215;29;20494;-81
2022/04/06 12:49:43;;;;;;;11.05;4.53;;;10.20;99.90;;;;;;4840083;29;20129;-85
2022/04/06 12:52:10;;;;;;;11.55;4.30;;;10.30;99.90;;;;;;4825665;29;20132;-81
2022/04/06 12:54:41;;;;;;;12.45;4.72;;;10.30;99.90;;;;;;4831763;29;20057;-82
2022/04/06 12:57:11;;;;;;;10.45;4.07;;;10.40;99.90;;;;;;4851172;29;20090;-82
2022/04/06 12:59:38;;;;;;;13.60;4.30;;;10.30;99.90;;;;;;4854875;29;20064;-81
2022/04/06 13:02:05;;;;;;;10.75;4.95;;;10.30;99.90;;;;;;4845255;29;20061;-88